Time;durP1;ratioP1;P1;durP2;ratioP2;P2;SDS_P1;SDS_P2;PMS_P1;PMS_P2;Temp;Humidity;BMP_temperature;BMP_pressure;BME280_temperature;BME280_humidity;BME280_pressure;Samples;Min_cycle;Max_cycle;Signal;HPM_P1;HPM_P2
2022/11/01 00:01:35;;;;;;;26.35;15.32;;;;;;;;;;5075049;28;20025;-60
2022/11/01 00:04:01;;;;;;;28.25;16.17;;;;;;;;;;5074412;28;20145;-60
2022/11/01 00:06:27;;;;;;;27.52;16.35;;;;;;;;;;5074750;28;20020;-58
2022/11/01 00:08:53;;;;;;;29.25;17.05;;;;;;;;;;5074855;28;20031;-60
2022/11/01 00:11:19;;;;;;;27.77;16.88;;;;;;;;;;5075826;28;20526;-59
2022/11/01 00:13:46;;;;;;;25.05;15.98;;;;;;;;;;5069563;28;20032;-56
2022/11/01 00:16:13;;;;;;;27.75;15.15;;;;;;;;;;5094769;28;20024;-60
2022/11/01 00:18:39;;;;;;;25.23;14.40;;;;;;;;;;5093604;28;20035;-60
2022/11/01 00:21:05;;;;;;;27.98;16.77;;;;;;;;;;5095304;28;20016;-58
2022/11/01 00:23:31;;;;;;;69.60;47.88;;;;;;;;;;5093355;28;20557;-60
2022/11/01 00:26:00;;;;;;;62.58;44.47;;;;;;;;;;5095292;28;20467;-61
2022/11/01 00:28:29;;;;;;;48.67;36.72;;;;;;;;;;5095393;28;20024;-60
2022/11/01 00:30:56;;;;;;;42.65;30.63;;;;;;;;;;5095221;28;20028;-61
2022/11/01 00:33:22;;;;;;;35.58;24.40;;;;;;;;;;5093794;28;20112;-59
2022/11/01 00:35:48;;;;;;;24.88;14.23;;;;;;;;;;5093790;28;20426;-61
2022/11/01 00:38:15;;;;;;;27.35;15.60;;;;;;;;;;5093165;28;20035;-59
2022/11/01 00:40:42;;;;;;;24.48;14.63;;;;;;;;;;5094419;28;20024;-60
2022/11/01 00:43:08;;;;;;;24.90;14.00;;;;;;;;;;5092081;28;20031;-61
2022/11/01 00:45:34;;;;;;;26.20;14.13;;;;;;;;;;5075957;28;20055;-60
2022/11/01 00:48:00;;;;;;;23.13;13.52;;;;;;;;;;5094070;28;20515;-59
2022/11/01 00:50:26;;;;;;;25.15;14.10;;;;;;;;;;5094559;28;20028;-59
2022/11/01 00:52:52;;;;;;;24.73;12.77;;;;;;;;;;5094330;28;20078;-59
2022/11/01 00:55:18;;;;;;;23.58;13.77;;;;;;;;;;5093490;28;20032;-58
2022/11/01 00:57:44;;;;;;;23.63;13.35;;;;;;;;;;5093178;28;20035;-60
2022/11/01 01:00:11;;;;;;;22.73;11.80;;;;;;;;;;5094484;28;20028;-59
2022/11/01 01:02:37;;;;;;;23.08;13.13;;;;;;;;;;5114279;28;20031;-60
2022/11/01 01:05:03;;;;;;;24.48;13.73;;;;;;;;;;5095541;28;20023;-59
2022/11/01 01:07:29;;;;;;;24.25;12.00;;;;;;;;;;5114321;28;20032;-59
2022/11/01 01:09:55;;;;;;;23.00;12.10;;;;;;;;;;5096113;28;20073;-57
2022/11/01 01:12:21;;;;;;;21.83;11.75;;;;;;;;;;5096008;28;20020;-60
2022/11/01 01:14:47;;;;;;;23.55;12.88;;;;;;;;;;5078775;28;20028;-59
2022/11/01 01:17:13;;;;;;;19.95;11.43;;;;;;;;;;5093349;28;20031;-60
2022/11/01 01:19:39;;;;;;;23.00;11.55;;;;;;;;;;5093807;28;20396;-60
2022/11/01 01:22:05;;;;;;;22.80;12.27;;;;;;;;;;5093565;28;20020;-60
2022/11/01 01:24:32;;;;;;;21.80;11.43;;;;;;;;;;5091719;28;20016;-58
2022/11/01 01:26:58;;;;;;;23.95;11.73;;;;;;;;;;5093572;28;20024;-59
2022/11/01 01:29:24;;;;;;;22.48;11.68;;;;;;;;;;5093341;28;20050;-59
2022/11/01 01:31:50;;;;;;;21.42;11.50;;;;;;;;;;5093436;28;20539;-59
2022/11/01 01:34:17;;;;;;;20.65;12.05;;;;;;;;;;5092719;28;20387;-58
2022/11/01 01:36:43;;;;;;;23.52;12.20;;;;;;;;;;5093291;28;20028;-56
2022/11/01 01:39:09;;;;;;;22.67;11.55;;;;;;;;;;5092598;28;20119;-59
2022/11/01 01:44:38;;;;;;;25.42;11.82;;;;;;;;;;5092769;28;20493;-59
2022/11/01 01:47:04;;;;;;;19.67;11.60;;;;;;;;;;5092678;28;20028;-58
2022/11/01 01:49:30;;;;;;;25.17;11.75;;;;;;;;;;5091839;28;20031;-60
2022/11/01 01:51:56;;;;;;;24.67;12.05;;;;;;;;;;5091988;28;20506;-60
2022/11/01 01:54:22;;;;;;;23.20;11.85;;;;;;;;;;5092192;28;20063;-59
2022/11/01 01:56:48;;;;;;;20.00;10.70;;;;;;;;;;5092843;28;20047;-59
2022/11/01 01:59:15;;;;;;;20.27;11.38;;;;;;;;;;5093101;28;20020;-60
2022/11/01 02:01:41;;;;;;;25.73;12.30;;;;;;;;;;5092797;28;20020;-59
2022/11/01 02:04:14;;;;;;;23.08;11.02;;;;;;;;;;5092040;28;20035;-59
2022/11/01 02:06:40;;;;;;;21.75;12.00;;;;;;;;;;5091453;28;20402;-56
2022/11/01 02:09:07;;;;;;;20.48;10.85;;;;;;;;;;5092885;28;20547;-56
2022/11/01 02:11:33;;;;;;;21.92;11.45;;;;;;;;;;5092690;28;20032;-59
2022/11/01 02:14:00;;;;;;;20.27;11.25;;;;;;;;;;5091796;28;20024;-58
2022/11/01 02:16:26;;;;;;;24.02;11.75;;;;;;;;;;5092459;28;20043;-60
2022/11/01 02:19:01;;;;;;;21.98;10.80;;;;;;;;;;5074439;28;20024;-59
2022/11/01 02:21:27;;;;;;;21.83;11.00;;;;;;;;;;5092525;28;20535;-59
2022/11/01 02:24:02;;;;;;;18.63;10.23;;;;;;;;;;5092079;28;20138;-59
2022/11/01 02:26:43;;;;;;;21.30;9.88;;;;;;;;;;5074598;28;20115;-59
2022/11/01 02:29:09;;;;;;;20.05;10.82;;;;;;;;;;5092182;28;20039;-58
2022/11/01 02:31:42;;;;;;;20.52;11.15;;;;;;;;;;5092476;28;20032;-59
2022/11/01 02:34:12;;;;;;;18.23;10.23;;;;;;;;;;5091731;28;20511;-60
2022/11/01 02:36:43;;;;;;;23.38;10.05;;;;;;;;;;5092230;28;20032;-59
2022/11/01 02:39:13;;;;;;;20.90;9.68;;;;;;;;;;5092392;28;20126;-60
2022/11/01 02:41:42;;;;;;;20.73;10.45;;;;;;;;;;5092462;28;20023;-60
2022/11/01 02:44:18;;;;;;;19.17;9.98;;;;;;;;;;5091533;28;20091;-58
2022/11/01 02:47:00;;;;;;;22.65;10.13;;;;;;;;;;5091512;28;20047;-60
2022/11/01 02:49:27;;;;;;;20.05;9.88;;;;;;;;;;5092147;28;20028;-60
2022/11/01 02:51:55;;;;;;;18.13;9.52;;;;;;;;;;5092127;28;20035;-60
2022/11/01 02:54:32;;;;;;;19.67;9.63;;;;;;;;;;5091450;28;20480;-61
2022/11/01 02:57:03;;;;;;;19.92;10.43;;;;;;;;;;5091903;28;20158;-61
2022/11/01 02:59:29;;;;;;;22.40;10.13;;;;;;;;;;5092113;28;20071;-61
2022/11/01 03:02:01;;;;;;;18.33;10.00;;;;;;;;;;5092141;28;20028;-59
2022/11/01 03:04:27;;;;;;;18.27;9.32;;;;;;;;;;5092323;28;20028;-61
2022/11/01 03:06:56;;;;;;;21.13;9.77;;;;;;;;;;5091468;28;20030;-61
2022/11/01 03:09:22;;;;;;;18.10;10.00;;;;;;;;;;5092428;28;20096;-60
2022/11/01 03:11:48;;;;;;;18.30;10.05;;;;;;;;;;5079931;28;20031;-60
2022/11/01 03:14:26;;;;;;;18.75;9.70;;;;;;;;;;5071362;28;20040;-61
2022/11/01 03:16:55;;;;;;;22.80;9.95;;;;;;;;;;5071780;28;20104;-61
2022/11/01 03:19:24;;;;;;;19.52;9.80;;;;;;;;;;5071489;28;20090;-60
2022/11/01 03:22:01;;;;;;;20.40;10.10;;;;;;;;;;5053704;28;20017;-61
2022/11/01 03:24:29;;;;;;;18.23;9.77;;;;;;;;;;5071044;28;20104;-62
2022/11/01 03:27:02;;;;;;;19.73;9.67;;;;;;;;;;5053867;28;20023;-61
2022/11/01 03:29:29;;;;;;;18.73;9.88;;;;;;;;;;5071527;28;20275;-59
2022/11/01 03:31:56;;;;;;;20.00;10.30;;;;;;;;;;5071754;28;20439;-60
2022/11/01 03:34:23;;;;;;;20.08;9.38;;;;;;;;;;5070945;28;20032;-60
2022/11/01 03:36:51;;;;;;;19.83;9.68;;;;;;;;;;5072632;28;20055;-60
2022/11/01 03:39:22;;;;;;;19.75;9.57;;;;;;;;;;5071455;28;20033;-59
2022/11/01 03:41:50;;;;;;;19.65;9.85;;;;;;;;;;5071532;28;20066;-60
2022/11/01 03:44:16;;;;;;;17.05;9.10;;;;;;;;;;5052902;28;20549;-58
2022/11/01 03:46:42;;;;;;;19.30;9.75;;;;;;;;;;5071284;28;20017;-59
2022/11/01 03:49:08;;;;;;;17.15;9.90;;;;;;;;;;5071485;28;20032;-61
2022/11/01 03:51:35;;;;;;;22.45;9.93;;;;;;;;;;5071521;28;20016;-57
2022/11/01 03:54:01;;;;;;;21.48;10.23;;;;;;;;;;5052769;28;20028;-60
2022/11/01 03:56:26;;;;;;;23.02;9.90;;;;;;;;;;5071429;28;20086;-60
2022/11/01 03:58:52;;;;;;;19.70;9.70;;;;;;;;;;5071329;28;20029;-60
2022/11/01 04:01:18;;;;;;;19.70;10.38;;;;;;;;;;5053948;28;20115;-59
2022/11/01 04:03:45;;;;;;;23.40;10.10;;;;;;;;;;5074434;28;20506;-61
2022/11/01 04:06:11;;;;;;;20.92;9.85;;;;;;;;;;5088345;28;20073;-60
2022/11/01 04:08:37;;;;;;;18.98;10.38;;;;;;;;;;5095129;28;20106;-59
2022/11/01 04:11:03;;;;;;;17.85;9.77;;;;;;;;;;5094103;28;20056;-61
2022/11/01 04:13:29;;;;;;;19.27;10.05;;;;;;;;;;5094258;28;20043;-59
2022/11/01 04:21:27;;;;;;;17.48;9.50;;;;;;;;;;5095043;28;20085;-61
2022/11/01 04:23:53;;;;;;;19.83;8.77;;;;;;;;;;5076129;28;20510;-60
2022/11/01 04:26:20;;;;;;;21.17;9.90;;;;;;;;;;5095068;28;20024;-60
2022/11/01 04:28:55;;;;;;;18.70;9.27;;;;;;;;;;5094711;28;20024;-60
2022/11/01 04:31:22;;;;;;;19.30;9.43;;;;;;;;;;5094597;28;20032;-60
2022/11/01 04:33:49;;;;;;;19.58;9.00;;;;;;;;;;5093974;28;20020;-56
2022/11/01 04:36:15;;;;;;;18.73;8.68;;;;;;;;;;5076495;28;20052;-60
2022/11/01 04:38:41;;;;;;;19.90;9.38;;;;;;;;;;5094127;28;20028;-61
2022/11/01 04:41:07;;;;;;;21.33;9.60;;;;;;;;;;5093234;28;20024;-60
2022/11/01 04:43:33;;;;;;;16.70;8.70;;;;;;;;;;5094022;28;20023;-60
2022/11/01 04:45:59;;;;;;;21.80;10.38;;;;;;;;;;5076619;28;20028;-61
2022/11/01 04:48:26;;;;;;;18.42;9.27;;;;;;;;;;5078148;22;20048;-65
2022/11/01 04:50:52;;;;;;;19.88;9.35;;;;;;;;;;5052600;28;20025;-65
2022/11/01 04:53:18;;;;;;;17.80;9.40;;;;;;;;;;5051911;28;20483;-65
2022/11/01 04:55:44;;;;;;;16.92;8.57;;;;;;;;;;5052517;28;20025;-64
2022/11/01 04:58:10;;;;;;;19.02;10.02;;;;;;;;;;5047912;28;20501;-65
2022/11/01 05:00:37;;;;;;;19.40;9.40;;;;;;;;;;5046998;28;20025;-65
2022/11/01 05:03:04;;;;;;;16.63;10.10;;;;;;;;;;5032251;28;20075;-64
2022/11/01 05:05:30;;;;;;;20.33;9.90;;;;;;;;;;5035807;28;20026;-65
2022/11/01 05:08:04;;;;;;;18.27;9.82;;;;;;;;;;5032154;28;20040;-65
2022/11/01 05:10:30;;;;;;;22.35;9.75;;;;;;;;;;5014429;28;20033;-65
2022/11/01 05:12:56;;;;;;;19.45;9.48;;;;;;;;;;5030996;28;20641;-64
2022/11/01 05:15:22;;;;;;;18.45;9.25;;;;;;;;;;5031865;28;20036;-64
2022/11/01 05:17:48;;;;;;;18.88;9.10;;;;;;;;;;5014208;28;20643;-65
2022/11/01 05:20:14;;;;;;;17.70;8.63;;;;;;;;;;5032154;28;20029;-65
2022/11/01 05:22:40;;;;;;;17.95;9.27;;;;;;;;;;5032306;28;20018;-65
2022/11/01 05:25:08;;;;;;;19.90;10.45;;;;;;;;;;5046858;28;20064;-65
2022/11/01 05:27:34;;;;;;;20.90;8.75;;;;;;;;;;5031991;28;20083;-66
2022/11/01 05:30:00;;;;;;;18.77;9.93;;;;;;;;;;5032002;28;20112;-65
2022/11/01 05:32:26;;;;;;;20.50;9.70;;;;;;;;;;5032002;28;20030;-66
2022/11/01 05:34:52;;;;;;;17.85;9.60;;;;;;;;;;5031247;28;20047;-64
2022/11/01 05:37:18;;;;;;;21.23;9.43;;;;;;;;;;5031188;28;20065;-64
2022/11/01 05:39:44;;;;;;;19.48;9.60;;;;;;;;;;5030328;28;20053;-65
2022/11/01 05:42:10;;;;;;;19.83;9.63;;;;;;;;;;5031715;28;20055;-65
2022/11/01 05:44:36;;;;;;;17.00;9.30;;;;;;;;;;5029540;28;20029;-65
2022/11/01 05:47:03;;;;;;;19.80;9.35;;;;;;;;;;5031779;28;20220;-65
2022/11/01 05:49:29;;;;;;;19.88;9.32;;;;;;;;;;5031516;28;20116;-64
2022/11/01 05:51:55;;;;;;;18.85;9.32;;;;;;;;;;5031701;28;20030;-64
2022/11/01 05:54:21;;;;;;;17.02;9.50;;;;;;;;;;5030756;28;20033;-64
2022/11/01 05:56:47;;;;;;;18.35;8.85;;;;;;;;;;5031430;28;20470;-64
2022/11/01 05:59:14;;;;;;;18.40;8.90;;;;;;;;;;5029927;28;20604;-65
2022/11/01 06:01:39;;;;;;;19.90;9.30;;;;;;;;;;5031188;28;20056;-65
2022/11/01 06:04:05;;;;;;;17.30;9.55;;;;;;;;;;5030548;28;20025;-65
2022/11/01 06:06:32;;;;;;;15.93;8.70;;;;;;;;;;5031077;28;20422;-64
2022/11/01 06:08:58;;;;;;;18.52;9.23;;;;;;;;;;5031052;28;20029;-64
2022/11/01 06:11:25;;;;;;;17.75;8.90;;;;;;;;;;5031020;28;20029;-64
2022/11/01 06:13:57;;;;;;;15.82;8.95;;;;;;;;;;5030148;28;20025;-64
2022/11/01 06:16:25;;;;;;;16.45;9.50;;;;;;;;;;5031287;28;20449;-64
2022/11/01 06:18:51;;;;;;;18.85;9.75;;;;;;;;;;5013384;28;20111;-64
2022/11/01 06:21:17;;;;;;;17.98;8.88;;;;;;;;;;5030889;28;20080;-64
2022/11/01 06:23:46;;;;;;;19.83;8.73;;;;;;;;;;5030511;28;20096;-64
2022/11/01 06:26:13;;;;;;;16.90;8.80;;;;;;;;;;5031113;28;20056;-65
2022/11/01 06:28:38;;;;;;;18.45;8.85;;;;;;;;;;5031048;28;20025;-64
2022/11/01 06:31:04;;;;;;;17.58;8.85;;;;;;;;;;5013138;28;20431;-65
2022/11/01 06:33:31;;;;;;;17.13;9.30;;;;;;;;;;5029956;28;20075;-65
2022/11/01 06:35:57;;;;;;;17.20;8.90;;;;;;;;;;5030385;28;20057;-65
2022/11/01 06:38:23;;;;;;;20.15;9.25;;;;;;;;;;5030177;28;20160;-64
2022/11/01 06:40:49;;;;;;;16.60;8.95;;;;;;;;;;5030377;28;20484;-66
2022/11/01 06:43:15;;;;;;;16.60;9.02;;;;;;;;;;5028629;28;20112;-65
2022/11/01 06:45:42;;;;;;;16.77;8.73;;;;;;;;;;5030548;28;20022;-65
2022/11/01 06:48:08;;;;;;;19.13;9.65;;;;;;;;;;5030520;28;20498;-65
2022/11/01 06:50:34;;;;;;;17.50;8.68;;;;;;;;;;5030482;28;20021;-65
2022/11/01 06:53:00;;;;;;;16.85;8.73;;;;;;;;;;5029053;28;20658;-64
2022/11/01 06:55:27;;;;;;;16.58;8.50;;;;;;;;;;5029134;28;20060;-65
2022/11/01 06:58:00;;;;;;;15.70;7.90;;;;;;;;;;5029987;28;20029;-64
2022/11/01 07:00:27;;;;;;;15.10;8.00;;;;;;;;;;5029040;28;20052;-64
2022/11/01 07:02:59;;;;;;;15.95;8.02;;;;;;;;;;5030132;28;20025;-65
2022/11/01 07:05:25;;;;;;;16.02;8.48;;;;;;;;;;5029364;28;20032;-65
2022/11/01 07:07:51;;;;;;;15.80;8.48;;;;;;;;;;5012414;28;20481;-65
2022/11/01 07:10:17;;;;;;;15.88;8.45;;;;;;;;;;5030226;28;20064;-65
2022/11/01 07:12:43;;;;;;;16.75;8.40;;;;;;;;;;5030034;28;20099;-65
2022/11/01 07:15:10;;;;;;;17.30;8.30;;;;;;;;;;5029370;28;20029;-66
2022/11/01 07:17:36;;;;;;;14.50;7.93;;;;;;;;;;5030049;28;20026;-66
2022/11/01 07:20:02;;;;;;;15.98;7.93;;;;;;;;;;5012337;28;20079;-66
2022/11/01 07:22:28;;;;;;;21.30;8.40;;;;;;;;;;5030055;28;20026;-65
2022/11/01 07:24:54;;;;;;;14.75;7.85;;;;;;;;;;5029186;28;20033;-66
2022/11/01 07:27:20;;;;;;;14.93;8.00;;;;;;;;;;5029762;28;20532;-66
2022/11/01 07:29:46;;;;;;;18.30;7.57;;;;;;;;;;5030063;28;20022;-66
2022/11/01 07:32:12;;;;;;;14.20;7.95;;;;;;;;;;5029834;28;20026;-65
2022/11/01 07:34:38;;;;;;;14.25;7.50;;;;;;;;;;5029148;28;20097;-66
2022/11/01 07:37:04;;;;;;;16.75;8.10;;;;;;;;;;5031796;28;20022;-65
2022/11/01 07:39:30;;;;;;;13.93;7.70;;;;;;;;;;5033623;28;20112;-65
2022/11/01 07:41:57;;;;;;;15.43;7.80;;;;;;;;;;5016027;28;20028;-65
2022/11/01 07:44:23;;;;;;;15.45;7.80;;;;;;;;;;5032729;28;20581;-63
2022/11/01 07:46:49;;;;;;;15.32;7.75;;;;;;;;;;5015577;28;20121;-66
2022/11/01 07:49:15;;;;;;;15.00;8.00;;;;;;;;;;5033296;28;20057;-65
2022/11/01 07:51:41;;;;;;;17.75;7.88;;;;;;;;;;5015371;28;20087;-64
2022/11/01 07:54:07;;;;;;;13.77;7.90;;;;;;;;;;5032860;28;20114;-66
2022/11/01 07:56:34;;;;;;;16.30;7.75;;;;;;;;;;5015725;28;20051;-65
2022/11/01 07:59:00;;;;;;;13.85;7.65;;;;;;;;;;5015666;28;20079;-65
2022/11/01 08:01:25;;;;;;;14.25;7.68;;;;;;;;;;5033482;28;20443;-65
2022/11/01 08:03:51;;;;;;;16.13;8.15;;;;;;;;;;5032632;28;20086;-64
2022/11/01 08:06:17;;;;;;;16.30;8.23;;;;;;;;;;5033930;28;20464;-65
2022/11/01 08:08:45;;;;;;;14.40;7.57;;;;;;;;;;5033569;28;20176;-65
2022/11/01 08:11:11;;;;;;;17.25;8.07;;;;;;;;;;5015914;28;20512;-66
2022/11/01 08:13:37;;;;;;;14.75;7.50;;;;;;;;;;5016632;28;20031;-60
2022/11/01 08:16:03;;;;;;;15.20;7.50;;;;;;;;;;5034004;28;20489;-60
2022/11/01 08:18:29;;;;;;;13.70;7.20;;;;;;;;;;5034489;28;20053;-61
2022/11/01 08:20:57;;;;;;;15.05;7.40;;;;;;;;;;5033614;28;20123;-58
2022/11/01 08:23:23;;;;;;;14.82;7.57;;;;;;;;;;5033290;28;20025;-60
2022/11/01 08:25:50;;;;;;;15.60;7.93;;;;;;;;;;5015642;28;20025;-59
2022/11/01 08:28:18;;;;;;;16.05;7.20;;;;;;;;;;5033342;28;20106;-60
2022/11/01 08:30:44;;;;;;;14.85;7.97;;;;;;;;;;5016253;28;20025;-62
2022/11/01 08:33:10;;;;;;;16.58;8.43;;;;;;;;;;5033732;28;20025;-60
2022/11/01 08:35:36;;;;;;;16.45;7.68;;;;;;;;;;5033807;28;20028;-61
2022/11/01 08:38:03;;;;;;;15.82;8.10;;;;;;;;;;5033655;28;20491;-62
2022/11/01 08:40:30;;;;;;;19.45;8.15;;;;;;;;;;5034368;28;20746;-62
2022/11/01 08:42:56;;;;;;;16.73;7.90;;;;;;;;;;5034214;28;20040;-62
2022/11/01 08:45:23;;;;;;;17.08;7.93;;;;;;;;;;5015580;28;20032;-61
2022/11/01 08:47:49;;;;;;;17.98;9.30;;;;;;;;;;5034063;28;20060;-61
2022/11/01 08:50:16;;;;;;;15.57;7.95;;;;;;;;;;5016035;28;20031;-61
2022/11/01 08:52:42;;;;;;;16.17;7.85;;;;;;;;;;5015912;28;20052;-62
2022/11/01 08:55:09;;;;;;;16.80;7.88;;;;;;;;;;5031619;28;20474;-60
2022/11/01 08:57:35;;;;;;;17.80;8.30;;;;;;;;;;5014464;28;20021;-62
2022/11/01 09:00:02;;;;;;;15.40;8.20;;;;;;;;;;5015679;28;20451;-60
2022/11/01 09:02:28;;;;;;;16.38;9.15;;;;;;;;;;5034878;28;20119;-62
2022/11/01 09:04:54;;;;;;;15.30;8.23;;;;;;;;;;5033875;28;20023;-59
2022/11/01 09:07:20;;;;;;;20.98;8.18;;;;;;;;;;5034208;28;20167;-63
2022/11/01 09:09:46;;;;;;;18.42;9.25;;;;;;;;;;5034559;28;20078;-61
2022/11/01 09:12:12;;;;;;;16.33;7.82;;;;;;;;;;5034272;28;20229;-63
2022/11/01 09:14:38;;;;;;;17.35;8.68;;;;;;;;;;5033576;28;20022;-59
2022/11/01 09:17:04;;;;;;;17.77;8.70;;;;;;;;;;5034269;28;20025;-60
2022/11/01 09:19:30;;;;;;;22.65;9.70;;;;;;;;;;5033337;28;20116;-62
2022/11/01 09:21:56;;;;;;;18.63;8.60;;;;;;;;;;5016190;28;20083;-60
2022/11/01 09:24:22;;;;;;;18.08;8.77;;;;;;;;;;5033472;28;20030;-63
2022/11/01 09:26:49;;;;;;;18.90;8.70;;;;;;;;;;5033017;28;20025;-62
2022/11/01 09:29:17;;;;;;;19.52;9.02;;;;;;;;;;5014330;28;20468;-60
2022/11/01 09:31:43;;;;;;;19.35;9.20;;;;;;;;;;5031704;28;20072;-58
2022/11/01 09:34:10;;;;;;;19.60;9.15;;;;;;;;;;5013918;28;20033;-62
2022/11/01 09:36:37;;;;;;;19.35;9.98;;;;;;;;;;5032497;28;20061;-61
2022/11/01 09:39:03;;;;;;;14.45;7.93;;;;;;;;;;5019166;28;20062;-61
2022/11/01 09:41:32;;;;;;;17.58;9.63;;;;;;;;;;5032970;28;20494;-62
2022/11/01 09:43:59;;;;;;;17.25;9.18;;;;;;;;;;5032092;28;20025;-61
2022/11/01 09:46:30;;;;;;;21.70;10.40;;;;;;;;;;5033024;28;20025;-62
2022/11/01 09:48:57;;;;;;;17.65;8.80;;;;;;;;;;5033415;28;20033;-61
2022/11/01 09:51:24;;;;;;;20.33;9.48;;;;;;;;;;5020809;28;20045;-60
2022/11/01 09:53:53;;;;;;;19.15;9.27;;;;;;;;;;5032152;28;20025;-61
2022/11/01 09:56:40;;;;;;;17.10;9.32;;;;;;;;;;5032718;28;20030;-61
2022/11/01 09:59:18;;;;;;;23.88;9.00;;;;;;;;;;5028402;28;20021;-61
2022/11/01 10:01:44;;;;;;;;;;;;;;;;;;5013816;28;20042;-65
2022/11/01 10:04:10;;;;;;;18.00;10.13;;;;;;;;;;5012391;28;19928;-65
2022/11/01 10:06:41;;;;;;;19.20;9.45;;;;;;;;;;5030350;28;20112;-65
2022/11/01 10:09:26;;;;;;;19.85;10.40;;;;;;;;;;5030083;28;20049;-66
2022/11/01 10:11:55;;;;;;;21.90;10.23;;;;;;;;;;5030251;28;20130;-66
2022/11/01 10:14:40;;;;;;;27.85;10.13;;;;;;;;;;5028164;28;20029;-66
2022/11/01 10:17:13;;;;;;;21.33;9.88;;;;;;;;;;5029408;28;20052;-66
2022/11/01 10:19:41;;;;;;;21.25;9.95;;;;;;;;;;5027160;28;20120;-65
2022/11/01 10:22:11;;;;;;;18.85;9.60;;;;;;;;;;5030243;28;20021;-66
2022/11/01 10:24:50;;;;;;;19.33;10.07;;;;;;;;;;5029363;28;20135;-67
2022/11/01 10:27:17;;;;;;;18.00;9.00;;;;;;;;;;5021170;28;20017;-65
2022/11/01 10:30:00;;;;;;;20.45;9.73;;;;;;;;;;5030214;28;20641;-65
2022/11/01 10:32:32;;;;;;;25.67;10.57;;;;;;;;;;5029044;28;20033;-65
2022/11/01 10:35:02;;;;;;;21.48;9.70;;;;;;;;;;5029541;28;20036;-65
2022/11/01 10:37:40;;;;;;;20.05;9.23;;;;;;;;;;5029769;28;20093;-63
2022/11/01 10:40:29;;;;;;;19.23;9.32;;;;;;;;;;5029954;28;20378;-65
2022/11/01 10:42:55;;;;;;;20.15;10.50;;;;;;;;;;5017494;28;20029;-64
2022/11/01 10:45:22;;;;;;;19.58;9.95;;;;;;;;;;5021458;28;20022;-65
2022/11/01 10:47:50;;;;;;;20.55;9.68;;;;;;;;;;5054789;22;20033;-58
2022/11/01 10:50:19;;;;;;;20.73;9.73;;;;;;;;;;5063158;28;20040;-55
2022/11/01 10:52:55;;;;;;;23.83;12.38;;;;;;;;;;5053737;28;20025;-59
2022/11/01 10:55:23;;;;;;;19.40;10.00;;;;;;;;;;5071476;28;20499;-60
2022/11/01 10:57:57;;;;;;;19.58;10.00;;;;;;;;;;5053513;28;20495;-55
2022/11/01 11:00:23;;;;;;;19.20;9.52;;;;;;;;;;5041551;28;20468;-61
2022/11/01 11:02:52;;;;;;;22.70;10.30;;;;;;;;;;5064248;28;20035;-60
2022/11/01 11:05:19;;;;;;;21.15;10.30;;;;;;;;;;5070504;28;20032;-59
2022/11/01 11:07:46;;;;;;;18.20;10.55;;;;;;;;;;5071138;28;20380;-57
2022/11/01 11:10:19;;;;;;;21.40;10.00;;;;;;;;;;5053639;28;20020;-60
2022/11/01 11:12:46;;;;;;;19.52;11.32;;;;;;;;;;5070929;28;20082;-59
2022/11/01 11:15:32;;;;;;;19.55;10.38;;;;;;;;;;5056798;28;20029;-59
2022/11/01 11:17:59;;;;;;;20.55;10.40;;;;;;;;;;5073718;28;20033;-59
2022/11/01 11:20:26;;;;;;;20.05;10.75;;;;;;;;;;5050913;28;20155;-58
2022/11/01 11:22:52;;;;;;;22.92;10.95;;;;;;;;;;5048879;28;20032;-55
2022/11/01 11:25:20;;;;;;;19.65;10.80;;;;;;;;;;5057229;28;20025;-57
2022/11/01 11:27:47;;;;;;;21.48;10.73;;;;;;;;;;5057696;28;20479;-57
2022/11/01 11:30:25;;;;;;;17.85;10.40;;;;;;;;;;5075651;28;20102;-57
2022/11/01 11:32:52;;;;;;;20.88;10.60;;;;;;;;;;5057986;28;20116;-59
2022/11/01 11:35:20;;;;;;;18.52;10.55;;;;;;;;;;5074723;28;20467;-59
2022/11/01 11:37:57;;;;;;;19.08;9.95;;;;;;;;;;5075145;28;20050;-59
2022/11/01 11:40:27;;;;;;;18.85;9.82;;;;;;;;;;5074668;28;20028;-58
2022/11/01 11:42:54;;;;;;;18.52;10.20;;;;;;;;;;5073703;28;20392;-60
2022/11/01 11:45:28;;;;;;;19.05;10.40;;;;;;;;;;5055441;28;20020;-61
2022/11/01 11:48:13;;;;;;;24.35;10.45;;;;;;;;;;5049936;28;20400;-58
2022/11/01 11:50:40;;;;;;;20.02;10.43;;;;;;;;;;5054194;28;20025;-59
2022/11/01 11:53:17;;;;;;;20.98;11.30;;;;;;;;;;5053147;28;20028;-60
2022/11/01 11:55:53;;;;;;;19.25;10.25;;;;;;;;;;5036512;28;20053;-60
2022/11/01 11:58:22;;;;;;;16.42;9.93;;;;;;;;;;5054418;28;20037;-57
2022/11/01 12:00:51;;;;;;;19.15;10.35;;;;;;;;;;5054367;28;20149;-58
2022/11/01 12:03:17;;;;;;;21.15;11.85;;;;;;;;;;5036191;28;20033;-62
2022/11/01 12:05:51;;;;;;;20.75;10.30;;;;;;;;;;5054532;28;20105;-59
2022/11/01 12:08:33;;;;;;;19.42;10.65;;;;;;;;;;5036733;28;20021;-60
2022/11/01 12:10:59;;;;;;;16.58;9.45;;;;;;;;;;5052957;28;20053;-58
2022/11/01 12:13:28;;;;;;;21.58;10.20;;;;;;;;;;4350596;28;10000701;-59
2022/11/01 12:16:06;;;;;;;18.73;10.23;;;;;;;;;;5027247;28;20025;-61
2022/11/01 12:18:32;;;;;;;18.63;10.10;;;;;;;;;;5051026;28;20579;-60
2022/11/01 12:20:58;;;;;;;19.52;10.23;;;;;;;;;;5058804;28;20028;-59
2022/11/01 12:23:27;;;;;;;19.33;10.15;;;;;;;;;;5059052;28;20029;-62
2022/11/01 12:25:54;;;;;;;22.38;10.65;;;;;;;;;;5070087;28;20048;-58
2022/11/01 12:28:32;;;;;;;16.67;9.90;;;;;;;;;;5070872;28;20028;-60
2022/11/01 12:31:02;;;;;;;17.23;10.50;;;;;;;;;;5019809;28;20056;-61
2022/11/01 12:33:33;;;;;;;19.90;10.82;;;;;;;;;;5030264;28;20525;-60
2022/11/01 12:36:00;;;;;;;19.35;10.50;;;;;;;;;;5013177;28;20033;-61
2022/11/01 12:38:38;;;;;;;18.48;10.43;;;;;;;;;;5038156;28;20025;-62
2022/11/01 12:41:04;;;;;;;;;;;;;;;;;;5053340;28;20694;-61
2022/11/01 12:43:35;;;;;;;21.73;10.73;;;;;;;;;;5043713;28;20110;-60
2022/11/01 12:46:03;;;;;;;22.00;10.60;;;;;;;;;;5030646;28;20425;-58
2022/11/01 12:48:48;;;;;;;19.08;9.85;;;;;;;;;;5041252;28;20040;-58
2022/11/01 12:51:14;;;;;;;23.58;11.05;;;;;;;;;;5031748;28;20032;-56
2022/11/01 12:53:43;;;;;;;17.10;10.10;;;;;;;;;;5049248;28;20037;-61
2022/11/01 12:56:09;;;;;;;22.10;9.73;;;;;;;;;;5052017;28;20029;-58
2022/11/01 12:58:35;;;;;;;19.42;10.15;;;;;;;;;;5038183;28;20029;-58
2022/11/01 13:01:04;;;;;;;17.05;10.13;;;;;;;;;;5032976;28;20021;-62
2022/11/01 13:03:39;;;;;;;18.77;10.05;;;;;;;;;;5032956;28;20020;-60
2022/11/01 13:06:04;;;;;;;18.83;10.38;;;;;;;;;;5032246;28;20105;-58
2022/11/01 13:08:35;;;;;;;21.30;10.30;;;;;;;;;;5034342;28;20112;-62
2022/11/01 13:11:19;;;;;;;21.92;12.60;;;;;;;;;;5015839;28;20175;-60
2022/11/01 13:13:49;;;;;;;21.35;10.35;;;;;;;;;;5014906;28;20052;-58
2022/11/01 13:16:18;;;;;;;18.55;9.80;;;;;;;;;;5033365;28;20030;-60
2022/11/01 13:18:51;;;;;;;19.67;10.00;;;;;;;;;;5033371;28;20497;-60
2022/11/01 13:21:21;;;;;;;20.80;9.63;;;;;;;;;;5015974;28;20485;-60
2022/11/01 13:23:58;;;;;;;16.98;9.50;;;;;;;;;;5032673;28;20021;-58
2022/11/01 13:26:34;;;;;;;19.60;10.52;;;;;;;;;;5033212;28;20112;-60
2022/11/01 13:29:10;;;;;;;18.30;10.38;;;;;;;;;;5016387;28;20532;-61
2022/11/01 13:31:36;;;;;;;18.73;9.40;;;;;;;;;;5033199;28;20561;-59
2022/11/01 13:34:05;;;;;;;20.73;10.00;;;;;;;;;;5031761;28;20025;-61
2022/11/01 13:36:37;;;;;;;21.85;10.30;;;;;;;;;;5015304;28;20040;-62
2022/11/01 13:39:23;;;;;;;18.58;9.57;;;;;;;;;;5032976;28;20080;-60
2022/11/01 13:41:56;;;;;;;19.73;10.18;;;;;;;;;;5032770;28;20068;-60
2022/11/01 13:44:23;;;;;;;18.55;10.20;;;;;;;;;;5014707;28;20025;-59
2022/11/01 13:47:00;;;;;;;23.85;10.23;;;;;;;;;;5032970;28;20041;-62
2022/11/01 13:49:46;;;;;;;22.57;10.40;;;;;;;;;;5035533;28;20109;-57
2022/11/01 13:52:12;;;;;;;21.63;10.73;;;;;;;;;;5035223;28;20036;-60
2022/11/01 13:54:53;;;;;;;17.50;9.70;;;;;;;;;;5014507;28;20048;-61
2022/11/01 13:57:20;;;;;;;16.98;9.60;;;;;;;;;;5015293;28;20161;-59
2022/11/01 13:59:57;;;;;;;20.25;10.93;;;;;;;;;;5014758;28;20033;-59
2022/11/01 14:02:23;;;;;;;19.20;9.82;;;;;;;;;;5032742;28;20041;-63
2022/11/01 14:05:00;;;;;;;20.45;10.30;;;;;;;;;;5031758;28;20025;-57
2022/11/01 14:07:58;;;;;;;18.20;9.88;;;;;;;;;;5032650;28;20030;-62
2022/11/01 14:10:27;;;;;;;19.13;10.23;;;;;;;;;;5032302;28;20029;-60
2022/11/01 14:12:56;;;;;;;20.88;9.85;;;;;;;;;;5031579;28;20433;-60
2022/11/01 14:15:27;;;;;;;17.23;9.13;;;;;;;;;;4335160;28;10021521;-61
2022/11/01 14:17:56;;;;;;;20.15;10.73;;;;;;;;;;5061865;28;20488;-57
2022/11/01 14:20:26;;;;;;;21.70;10.23;;;;;;;;;;5068639;28;20035;-62
2022/11/01 14:22:53;;;;;;;23.58;12.60;;;;;;;;;;5052433;28;20029;-62
2022/11/01 14:25:19;;;;;;;19.98;10.13;;;;;;;;;;5010714;28;20091;-60
2022/11/01 14:27:46;;;;;;;17.45;8.82;;;;;;;;;;5028586;28;20025;-59
2022/11/01 14:30:15;;;;;;;18.57;9.20;;;;;;;;;;5068007;28;20020;-60
2022/11/01 14:32:48;;;;;;;19.08;9.20;;;;;;;;;;5068619;28;20036;-62
2022/11/01 14:35:14;;;;;;;15.88;8.90;;;;;;;;;;5068234;28;20063;-61
2022/11/01 14:37:46;;;;;;;18.33;9.35;;;;;;;;;;5068678;28;20021;-59
2022/11/01 14:40:21;;;;;;;15.75;8.45;;;;;;;;;;5068368;28;20020;-59